Time;durP1;ratioP1;P1;durP2;ratioP2;P2;SDS_P1;SDS_P2;PMS_P1;PMS_P2;Temp;Humidity;BMP_temperature;BMP_pressure;BME280_temperature;BME280_humidity;BME280_pressure;Samples;Min_cycle;Max_cycle;Signal;HPM_P1;HPM_P2
2021/01/06 00:02:56;;;;;;;26.63;16.17;;;5.40;85.30;;;;;;8252697;28;20953;-74
2021/01/06 00:06:56;;;;;;;32.47;16.87;;;5.40;85.20;;;;;;8258673;28;21043;-74
2021/01/06 00:10:58;;;;;;;30.93;18.63;;;5.40;85.10;;;;;;8257683;28;20488;-75
2021/01/06 00:14:59;;;;;;;30.57;15.57;;;5.40;85.20;;;;;;8258406;28;20204;-76
2021/01/06 00:19:00;;;;;;;30.77;16.67;;;5.30;85.20;;;;;;8257909;28;20460;-74
2021/01/06 00:23:04;;;;;;;28.37;15.80;;;5.30;85.30;;;;;;8258131;28;20695;-76
2021/01/06 00:27:12;;;;;;;31.93;15.70;;;5.20;85.10;;;;;;8236592;28;20228;-75
2021/01/06 00:31:13;;;;;;;31.43;17.40;;;5.20;85.10;;;;;;8250633;28;20451;-74
2021/01/06 00:35:13;;;;;;;31.03;18.43;;;5.10;85.20;;;;;;8249938;28;20539;-75
2021/01/06 00:39:14;;;;;;;37.90;18.90;;;5.10;85.20;;;;;;8248432;28;20278;-75
2021/01/06 00:43:16;;;;;;;32.40;17.60;;;5.00;85.70;;;;;;8250335;28;20318;-75
2021/01/06 00:47:17;;;;;;;30.93;17.80;;;5.00;85.90;;;;;;8248473;28;20243;-74
2021/01/06 00:51:18;;;;;;;35.63;17.37;;;5.00;86.10;;;;;;8231461;28;20497;-75
2021/01/06 00:55:21;;;;;;;31.23;16.27;;;5.00;86.30;;;;;;8253758;28;20450;-75
2021/01/06 00:59:29;;;;;;;36.93;20.07;;;4.90;86.60;;;;;;8228061;28;20208;-76
2021/01/06 01:03:30;;;;;;;31.67;16.50;;;4.90;86.70;;;;;;8241958;28;20450;-74
2021/01/06 01:07:38;;;;;;;30.17;17.20;;;5.00;86.90;;;;;;8250186;28;20494;-74
2021/01/06 01:11:39;;;;;;;34.80;18.13;;;5.00;86.90;;;;;;8242905;28;20212;-74
2021/01/06 01:15:41;;;;;;;37.70;16.17;;;5.00;87.00;;;;;;8248121;28;20519;-74
2021/01/06 01:19:46;;;;;;;27.30;16.10;;;4.90;87.10;;;;;;8257334;28;20455;-75
2021/01/06 01:23:50;;;;;;;32.20;16.10;;;4.90;87.10;;;;;;8250963;28;20830;-75
2021/01/06 01:27:51;;;;;;;34.10;16.87;;;4.90;87.20;;;;;;8244899;28;20498;-75
2021/01/06 01:31:52;;;;;;;35.40;16.30;;;4.90;87.10;;;;;;8252193;28;20467;-74
2021/01/06 01:35:53;;;;;;;30.17;15.47;;;4.80;87.30;;;;;;8229868;28;20457;-75
2021/01/06 01:40:01;;;;;;;38.00;16.17;;;4.80;87.30;;;;;;8254462;28;20450;-74
2021/01/06 01:44:07;;;;;;;33.30;14.63;;;4.70;87.60;;;;;;8246110;28;20316;-75
2021/01/06 01:48:23;;;;;;;37.90;15.13;;;4.70;87.70;;;;;;8248151;28;20482;-75
2021/01/06 01:52:30;;;;;;;36.70;17.57;;;4.80;87.90;;;;;;8242642;28;20819;-75
2021/01/06 01:56:43;;;;;;;36.07;15.33;;;4.70;87.60;;;;;;8245714;28;20510;-75
2021/01/06 02:00:48;;;;;;;37.67;15.80;;;4.60;86.40;;;;;;8249683;28;20453;-75
2021/01/06 02:04:58;;;;;;;34.07;18.33;;;4.50;86.20;;;;;;8239658;28;20471;-74
2021/01/06 02:09:08;;;;;;;38.13;16.97;;;4.30;86.60;;;;;;8245100;28;21060;-74
2021/01/06 02:13:43;;;;;;;31.47;15.90;;;4.10;87.00;;;;;;8241743;28;20956;-74
2021/01/06 02:17:43;;;;;;;36.30;16.60;;;4.00;87.50;;;;;;8255500;28;20779;-75
2021/01/06 02:21:48;;;;;;;42.77;19.80;;;3.90;87.90;;;;;;8266077;28;20931;-75
2021/01/06 02:25:52;;;;;;;41.77;20.10;;;3.90;88.60;;;;;;8240553;28;20224;-75
2021/01/06 02:29:53;;;;;;;40.43;20.27;;;3.90;88.40;;;;;;8248890;28;20486;-75
2021/01/06 02:33:54;;;;;;;47.90;19.60;;;3.90;88.50;;;;;;8251971;28;20507;-75
2021/01/06 02:38:02;;;;;;;49.80;19.30;;;3.90;88.60;;;;;;8248047;28;20213;-75
2021/01/06 02:42:06;;;;;;;47.87;21.87;;;3.80;88.70;;;;;;8255322;28;20454;-77
2021/01/06 02:46:12;;;;;;;45.70;19.60;;;3.90;88.80;;;;;;8263652;28;20574;-76
2021/01/06 02:50:14;;;;;;;47.63;23.27;;;3.80;88.90;;;;;;8260421;28;20510;-76
2021/01/06 02:54:25;;;;;;;45.63;21.10;;;3.90;89.00;;;;;;8251581;28;20452;-75
2021/01/06 02:58:27;;;;;;;41.30;19.50;;;3.80;88.90;;;;;;8252921;28;20452;-76
2021/01/06 03:02:28;;;;;;;51.63;21.33;;;3.80;89.00;;;;;;8258257;28;20451;-77
2021/01/06 03:06:36;;;;;;;49.90;20.43;;;3.90;89.20;;;;;;8257302;28;20474;-77
2021/01/06 03:10:37;;;;;;;47.93;18.60;;;3.80;89.10;;;;;;8251137;28;20212;-75
2021/01/06 03:14:40;;;;;;;49.17;21.47;;;3.90;89.30;;;;;;8262304;28;20455;-75
2021/01/06 03:18:41;;;;;;;44.27;21.37;;;3.90;89.30;;;;;;8253397;28;20451;-76
2021/01/06 03:22:47;;;;;;;50.30;21.17;;;3.80;89.40;;;;;;8250987;28;20554;-75
2021/01/06 03:26:52;;;;;;;53.53;22.57;;;3.90;89.50;;;;;;8251730;28;20477;-76
2021/01/06 03:30:55;;;;;;;46.43;22.67;;;3.90;89.50;;;;;;8258113;28;20478;-75
2021/01/06 03:35:11;;;;;;;54.80;22.20;;;3.90;89.50;;;;;;8258629;28;20483;-76
2021/01/06 03:39:26;;;;;;;56.77;23.57;;;3.90;89.50;;;;;;8246849;28;20536;-76
2021/01/06 03:43:30;;;;;;;47.63;23.00;;;3.90;90.00;;;;;;8231649;28;20453;-76
2021/01/06 03:47:36;;;;;;;62.17;25.27;;;3.90;89.60;;;;;;8257880;28;20995;-76
2021/01/06 03:51:48;;;;;;;53.73;23.80;;;3.90;89.70;;;;;;8256089;28;20924;-76
2021/01/06 03:55:51;;;;;;;59.10;23.73;;;3.90;89.70;;;;;;8258163;28;20471;-76
2021/01/06 03:59:52;;;;;;;46.90;22.60;;;3.90;89.60;;;;;;8260265;28;20447;-76
2021/01/06 04:04:21;;;;;;;61.00;23.90;;;3.90;89.70;;;;;;8247560;28;20774;-76
2021/01/06 04:08:58;;;;;;;63.03;24.20;;;4.00;89.90;;;;;;8251593;28;20456;-76
2021/01/06 04:13:06;;;;;;;63.53;24.00;;;4.00;89.80;;;;;;8251151;28;20821;-76
2021/01/06 04:17:17;;;;;;;66.33;23.80;;;4.00;89.60;;;;;;8247516;28;20816;-76
2021/01/06 04:21:19;;;;;;;51.67;23.23;;;4.00;89.70;;;;;;8267293;28;20478;-76
2021/01/06 04:25:28;;;;;;;58.67;24.27;;;4.00;89.70;;;;;;8267283;28;20476;-77
2021/01/06 04:29:28;;;;;;;57.00;22.90;;;4.10;89.70;;;;;;8252762;28;20473;-76
2021/01/06 04:33:46;;;;;;;67.40;26.00;;;4.10;90.10;;;;;;8265899;28;20854;-77
2021/01/06 04:37:54;;;;;;;58.40;25.47;;;4.00;89.70;;;;;;8269878;28;20456;-77
2021/01/06 04:42:02;;;;;;;59.63;22.50;;;4.10;89.80;;;;;;8244465;28;20450;-76
2021/01/06 04:46:31;;;;;;;54.60;23.17;;;4.10;89.90;;;;;;8271361;28;20461;-77
2021/01/06 04:50:54;;;;;;;56.47;23.37;;;4.10;89.70;;;;;;8243970;28;20500;-76
2021/01/06 04:55:21;;;;;;;57.93;22.30;;;4.10;89.60;;;;;;8249344;28;20611;-77
2021/01/06 04:59:52;;;;;;;64.47;24.03;;;4.10;89.70;;;;;;8276574;28;20951;-77
2021/01/06 05:04:18;;;;;;;57.67;23.73;;;4.10;89.70;;;;;;8261065;28;20452;-77
2021/01/06 05:08:22;;;;;;;61.77;24.00;;;4.00;89.80;;;;;;8249743;28;21044;-77
2021/01/06 05:12:36;;;;;;;62.23;23.77;;;4.10;90.00;;;;;;8268707;28;20461;-77
2021/01/06 05:16:43;;;;;;;58.00;27.17;;;4.10;90.00;;;;;;8254418;28;20486;-77
2021/01/06 05:20:46;;;;;;;53.37;22.57;;;4.10;90.30;;;;;;8247573;28;20469;-77
2021/01/06 05:24:50;;;;;;;58.17;26.10;;;4.10;90.00;;;;;;8254609;28;20473;-77
2021/01/06 05:28:51;;;;;;;57.87;22.20;;;4.10;90.00;;;;;;8252967;28;20941;-77
2021/01/06 05:33:41;;;;;;;61.80;23.70;;;4.10;90.00;;;;;;8253760;28;20447;-77
2021/01/06 05:37:52;;;;;;;56.67;23.20;;;4.10;90.10;;;;;;8253614;28;21029;-77
2021/01/06 05:42:04;;;;;;;48.80;20.77;;;4.10;90.10;;;;;;8256888;28;20537;-77
2021/01/06 05:46:11;;;;;;;64.97;23.50;;;4.10;90.10;;;;;;8264053;28;20484;-77
2021/01/06 05:50:22;;;;;;;50.33;20.73;;;4.10;90.40;;;;;;8252922;28;20830;-77
2021/01/06 05:54:52;;;;;;;59.53;26.23;;;4.10;90.20;;;;;;8258975;28;20448;-75
2021/01/06 05:59:18;;;;;;;71.47;25.23;;;4.20;90.30;;;;;;8244999;28;21133;-77
2021/01/06 06:03:22;;;;;;;42.23;21.17;;;4.20;90.30;;;;;;8220724;28;20451;-78
2021/01/06 06:07:32;;;;;;;56.80;23.50;;;4.20;90.30;;;;;;8252033;28;20500;-77
2021/01/06 06:12:10;;;;;;;42.90;20.30;;;4.30;90.30;;;;;;8248324;28;20551;-77
2021/01/06 06:16:30;;;;;;;48.27;21.23;;;4.30;90.30;;;;;;8248915;28;20449;-77
2021/01/06 06:21:08;;;;;;;43.00;22.03;;;4.30;90.30;;;;;;8249420;28;20525;-77
2021/01/06 06:25:29;;;;;;;44.63;18.67;;;4.30;90.40;;;;;;8267162;28;20506;-77
2021/01/06 06:29:41;;;;;;;49.47;18.20;;;4.30;90.40;;;;;;8260995;28;20427;-77
2021/01/06 06:33:53;;;;;;;55.17;21.63;;;4.30;90.40;;;;;;8262816;28;20442;-77
2021/01/06 06:38:02;;;;;;;47.67;21.87;;;4.30;90.40;;;;;;8237521;28;20520;-75
2021/01/06 06:42:51;;;;;;;47.83;19.60;;;4.40;90.40;;;;;;8250629;28;20446;-75
2021/01/06 06:47:16;;;;;;;43.83;18.30;;;4.40;90.40;;;;;;8251905;28;20508;-75
2021/01/06 06:51:24;;;;;;;37.43;17.17;;;4.50;90.50;;;;;;8251000;28;20485;-75
2021/01/06 06:55:35;;;;;;;42.10;17.67;;;4.50;90.40;;;;;;8260166;28;20450;-76
2021/01/06 07:00:03;;;;;;;40.03;21.03;;;4.60;90.50;;;;;;8241873;28;20475;-75
2021/01/06 07:04:19;;;;;;;35.07;17.40;;;4.60;90.40;;;;;;8271463;28;20440;-74
2021/01/06 07:08:33;;;;;;;42.10;18.37;;;4.70;90.50;;;;;;8250434;28;20491;-74
2021/01/06 07:12:54;;;;;;;42.67;19.07;;;4.70;90.50;;;;;;8260883;28;20517;-74
2021/01/06 07:17:06;;;;;;;40.93;18.40;;;4.80;90.50;;;;;;8267166;28;20492;-74
2021/01/06 07:21:21;;;;;;;39.53;16.50;;;4.80;90.50;;;;;;8262000;28;20467;-74
2021/01/06 07:25:28;;;;;;;40.70;18.83;;;4.90;90.50;;;;;;8257536;28;20826;-74
2021/01/06 07:29:42;;;;;;;28.50;15.90;;;4.90;90.50;;;;;;8253769;28;20447;-74
2021/01/06 07:34:06;;;;;;;30.57;16.53;;;4.90;90.50;;;;;;8248830;28;20451;-74
2021/01/06 07:38:10;;;;;;;43.27;18.27;;;5.00;90.50;;;;;;8246416;28;20473;-75
2021/01/06 07:42:38;;;;;;;37.87;16.73;;;5.00;90.50;;;;;;8241710;28;20513;-75
2021/01/06 07:47:02;;;;;;;33.73;14.90;;;5.10;90.50;;;;;;8256095;28;20501;-75
2021/01/06 07:51:06;;;;;;;41.83;16.33;;;5.10;90.40;;;;;;8254238;28;20447;-75
2021/01/06 07:55:32;;;;;;;37.73;16.00;;;5.10;90.40;;;;;;8254791;28;20462;-75
2021/01/06 07:59:45;;;;;;;34.57;17.20;;;5.10;90.40;;;;;;8254744;28;20441;-75
2021/01/06 08:03:56;;;;;;;34.53;17.60;;;5.10;90.40;;;;;;8250351;28;20454;-75
2021/01/06 08:08:11;;;;;;;30.57;15.30;;;5.10;90.40;;;;;;8280323;28;20584;-74
2021/01/06 08:12:42;;;;;;;31.83;16.83;;;5.10;90.40;;;;;;8262368;28;20458;-75
2021/01/06 08:16:55;;;;;;;32.53;16.43;;;5.20;90.40;;;;;;8254245;28;20465;-75
2021/01/06 08:21:20;;;;;;;32.40;16.23;;;5.20;90.40;;;;;;8247259;28;20495;-75
2021/01/06 08:25:28;;;;;;;23.97;13.07;;;5.20;90.30;;;;;;8249372;28;20473;-75
2021/01/06 08:30:15;;;;;;;30.23;13.90;;;5.20;90.30;;;;;;8276629;28;20457;-75
2021/01/06 08:34:29;;;;;;;30.43;14.53;;;5.20;90.50;;;;;;8251826;28;20840;-75
2021/01/06 08:38:33;;;;;;;29.63;16.30;;;5.20;90.30;;;;;;8246862;28;21236;-75
2021/01/06 08:42:46;;;;;;;35.47;17.43;;;5.30;90.30;;;;;;8249513;28;20481;-74
2021/01/06 08:46:56;;;;;;;29.83;16.10;;;5.30;90.30;;;;;;8260872;28;20478;-74
2021/01/06 08:51:11;;;;;;;39.03;18.13;;;5.40;90.30;;;;;;8259511;28;20453;-74
2021/01/06 08:55:19;;;;;;;26.13;15.13;;;5.40;90.20;;;;;;8249890;28;21238;-75
2021/01/06 08:59:35;;;;;;;28.53;15.57;;;5.40;90.20;;;;;;8269436;28;20448;-74
2021/01/06 09:03:46;;;;;;;34.67;17.80;;;5.40;90.20;;;;;;8262663;28;20449;-75
2021/01/06 09:07:55;;;;;;;32.00;14.77;;;5.40;90.20;;;;;;8249608;28;21000;-75
2021/01/06 09:11:58;;;;;;;32.90;17.20;;;5.30;90.10;;;;;;8251209;28;20558;-75
2021/01/06 09:16:23;;;;;;;35.47;14.50;;;5.30;90.20;;;;;;8257018;28;20815;-74
2021/01/06 09:21:09;;;;;;;34.90;17.60;;;5.30;90.20;;;;;;8251446;28;21000;-75
2021/01/06 09:25:15;;;;;;;30.40;16.87;;;5.40;90.20;;;;;;8230178;28;20481;-74
2021/01/06 09:29:20;;;;;;;26.87;14.50;;;5.40;90.20;;;;;;8246914;28;20450;-75
2021/01/06 09:33:28;;;;;;;34.27;16.90;;;5.40;90.10;;;;;;8250571;28;20455;-74
2021/01/06 09:37:37;;;;;;;31.47;15.67;;;5.40;90.10;;;;;;8265607;28;20448;-75
2021/01/06 09:41:42;;;;;;;27.80;15.23;;;5.50;90.20;;;;;;8266534;28;20532;-74
2021/01/06 09:45:47;;;;;;;29.23;14.27;;;5.50;90.10;;;;;;8265702;28;21286;-74
2021/01/06 09:49:57;;;;;;;28.60;15.90;;;5.60;90.10;;;;;;8244598;28;20439;-76
2021/01/06 09:54:03;;;;;;;30.13;14.77;;;5.60;90.00;;;;;;8241680;28;20456;-75
2021/01/06 09:58:31;;;;;;;34.93;16.33;;;5.70;90.00;;;;;;8249140;28;20558;-75
2021/01/06 10:02:35;;;;;;;32.07;15.93;;;5.80;89.90;;;;;;8268997;28;20479;-77
2021/01/06 10:06:52;;;;;;;30.33;16.20;;;5.80;89.60;;;;;;8243809;28;20517;-76
2021/01/06 10:10:58;;;;;;;26.60;14.40;;;5.80;89.50;;;;;;8244425;28;20478;-75
2021/01/06 10:15:18;;;;;;;34.40;16.83;;;5.80;89.20;;;;;;8246036;28;20972;-75
2021/01/06 10:19:37;;;;;;;32.70;14.70;;;5.90;89.20;;;;;;8239691;28;20456;-75
2021/01/06 10:24:07;;;;;;;34.10;14.40;;;5.90;89.20;;;;;;8241550;28;21030;-75
2021/01/06 10:28:27;;;;;;;26.63;14.10;;;6.00;89.30;;;;;;8257723;28;20478;-76
2021/01/06 10:32:50;;;;;;;28.40;15.00;;;6.10;88.80;;;;;;8254813;28;20473;-76
2021/01/06 10:36:58;;;;;;;29.60;17.00;;;6.10;88.30;;;;;;8252175;28;20458;-76
2021/01/06 10:41:43;;;;;;;37.13;16.33;;;6.10;88.10;;;;;;8267675;28;20891;-75
2021/01/06 10:45:47;;;;;;;28.70;16.40;;;6.10;88.10;;;;;;8249183;28;20999;-75
2021/01/06 10:49:59;;;;;;;36.40;18.03;;;6.10;88.20;;;;;;8246986;28;20498;-75
2021/01/06 10:54:03;;;;;;;41.23;19.60;;;6.10;88.00;;;;;;8253275;28;20773;-76
2021/01/06 10:58:26;;;;;;;33.40;17.80;;;6.10;88.10;;;;;;8246740;28;20447;-75
2021/01/06 11:02:50;;;;;;;38.47;21.17;;;6.10;88.20;;;;;;8257227;28;20457;-75
2021/01/06 11:06:52;;;;;;;31.20;17.60;;;6.20;87.80;;;;;;8258958;28;20478;-75
2021/01/06 11:11:17;;;;;;;28.90;17.10;;;6.20;87.40;;;;;;8258081;28;20471;-74
2021/01/06 11:15:43;;;;;;;30.13;17.43;;;6.30;87.00;;;;;;8264138;28;20478;-74
2021/01/06 11:20:22;;;;;;;34.10;18.07;;;6.30;86.90;;;;;;8266671;28;20455;-75
2021/01/06 11:24:48;;;;;;;33.07;19.20;;;6.30;86.90;;;;;;8253991;28;20449;-76
2021/01/06 11:28:58;;;;;;;35.33;16.30;;;6.30;86.60;;;;;;8259041;28;20463;-75
2021/01/06 11:33:17;;;;;;;31.87;17.20;;;6.30;86.20;;;;;;8247934;28;20559;-74
2021/01/06 11:37:33;;;;;;;30.77;16.83;;;6.30;86.00;;;;;;8265433;28;20444;-74
2021/01/06 11:41:35;;;;;;;33.13;17.53;;;6.30;86.10;;;;;;8265180;28;20679;-75
2021/01/06 11:45:46;;;;;;;36.10;17.27;;;6.40;86.10;;;;;;8258566;28;20476;-75
2021/01/06 11:50:06;;;;;;;30.13;16.87;;;6.40;85.70;;;;;;8260377;28;20456;-75
2021/01/06 11:54:27;;;;;;;33.70;18.30;;;6.40;85.80;;;;;;8269231;28;20456;-75
2021/01/06 11:58:40;;;;;;;36.10;19.10;;;6.50;85.40;;;;;;8250287;28;20545;-75
2021/01/06 12:03:03;;;;;;;40.87;19.43;;;6.40;85.30;;;;;;8261559;28;20456;-75
2021/01/06 12:07:39;;;;;;;40.50;21.57;;;6.50;85.40;;;;;;8253898;28;21139;-75
2021/01/06 12:12:16;;;;;;;33.07;17.43;;;6.50;85.40;;;;;;8256838;28;20495;-76
2021/01/06 12:16:45;;;;;;;33.60;17.10;;;6.40;84.60;;;;;;8242291;28;20463;-76
2021/01/06 12:20:56;;;;;;;32.80;19.13;;;6.30;85.20;;;;;;8254548;28;20487;-75
2021/01/06 12:25:22;;;;;;;40.83;21.10;;;6.30;85.20;;;;;;8257384;28;20474;-75
2021/01/06 12:29:29;;;;;;;37.77;18.67;;;6.20;85.20;;;;;;8262720;28;20450;-75
2021/01/06 12:33:49;;;;;;;35.50;19.60;;;6.10;85.60;;;;;;8276333;28;20444;-75
2021/01/06 12:38:05;;;;;;;51.43;22.67;;;6.10;85.80;;;;;;8274571;28;20593;-74
2021/01/06 12:42:13;;;;;;;49.10;23.17;;;6.20;86.20;;;;;;8259903;28;20457;-75
2021/01/06 12:46:44;;;;;;;51.50;23.10;;;6.20;86.40;;;;;;8255570;28;20879;-74
2021/01/06 12:51:24;;;;;;;52.10;21.67;;;6.10;86.20;;;;;;8276885;28;20537;-75
2021/01/06 12:55:49;;;;;;;50.53;22.77;;;6.10;86.40;;;;;;8258168;28;20456;-75
2021/01/06 13:00:19;;;;;;;41.80;19.80;;;6.10;86.10;;;;;;8274376;28;20454;-76
2021/01/06 13:04:35;;;;;;;45.73;21.07;;;6.10;85.50;;;;;;8253102;28;20456;-75
2021/01/06 13:08:51;;;;;;;43.23;25.07;;;6.10;85.10;;;;;;8258361;28;20442;-74
2021/01/06 13:13:21;;;;;;;45.50;22.43;;;6.10;85.70;;;;;;8260761;28;20459;-75
2021/01/06 13:17:43;;;;;;;47.37;23.60;;;6.10;85.90;;;;;;8256024;28;20456;-74
2021/01/06 13:22:13;;;;;;;53.47;25.83;;;6.10;86.00;;;;;;8254436;28;21001;-75
2021/01/06 13:26:37;;;;;;;46.47;26.07;;;6.10;86.00;;;;;;8262271;28;20468;-77
2021/01/06 13:31:04;;;;;;;53.33;26.30;;;6.10;85.40;;;;;;8243845;28;20449;-76
2021/01/06 13:35:32;;;;;;;53.63;25.07;;;6.00;85.70;;;;;;8257469;28;20810;-75
2021/01/06 13:39:45;;;;;;;46.80;23.43;;;6.00;85.90;;;;;;8242943;28;20463;-75
2021/01/06 13:44:23;;;;;;;43.30;23.00;;;5.90;86.00;;;;;;8261154;28;20968;-74
2021/01/06 13:48:56;;;;;;;45.13;21.87;;;5.90;86.10;;;;;;8262064;28;20480;-75
2021/01/06 13:53:13;;;;;;;46.70;24.83;;;5.90;86.30;;;;;;8267446;28;20532;-74
2021/01/06 13:57:37;;;;;;;40.90;21.03;;;5.80;86.40;;;;;;8245890;28;20443;-75
2021/01/06 14:01:55;;;;;;;47.77;24.67;;;5.80;86.40;;;;;;8272440;28;20447;-75
2021/01/06 14:06:37;;;;;;;48.13;24.30;;;5.80;86.40;;;;;;8259583;28;20463;-75
2021/01/06 14:11:16;;;;;;;48.77;23.80;;;5.80;86.50;;;;;;8187676;28;20684;-75
2021/01/06 14:15:54;;;;;;;50.93;24.70;;;5.80;86.80;;;;;;8245708;28;20460;-75
2021/01/06 14:20:30;;;;;;;52.53;25.13;;;5.70;87.00;;;;;;8242882;28;20471;-74
2021/01/06 14:24:33;;;;;;;60.77;28.20;;;5.70;87.10;;;;;;8245811;28;21153;-74
2021/01/06 14:28:36;;;;;;;56.40;28.00;;;5.60;87.10;;;;;;8243183;28;20538;-75
2021/01/06 14:32:44;;;;;;;51.27;27.00;;;5.60;87.20;;;;;;8239589;28;20475;-75
2021/01/06 14:36:55;;;;;;;59.67;28.30;;;5.60;87.10;;;;;;8246608;28;20467;-75
2021/01/06 14:41:17;;;;;;;63.00;28.60;;;5.50;87.10;;;;;;8246159;28;20939;-74
2021/01/06 14:45:46;;;;;;;66.10;31.97;;;5.40;87.00;;;;;;8268836;28;20480;-75
2021/01/06 14:49:58;;;;;;;71.70;31.47;;;5.40;87.30;;;;;;8261412;28;20448;-75
2021/01/06 14:54:12;;;;;;;61.97;29.93;;;5.30;87.50;;;;;;8267474;28;20450;-75
2021/01/06 14:58:22;;;;;;;74.73;33.90;;;5.30;87.60;;;;;;8238691;28;20479;-74
2021/01/06 15:02:34;;;;;;;69.47;32.27;;;5.30;87.50;;;;;;8247535;28;20597;-74
2021/01/06 15:07:02;;;;;;;82.70;35.50;;;5.30;87.50;;;;;;8237110;28;21061;-75
2021/01/06 15:11:22;;;;;;;83.20;35.27;;;5.30;87.60;;;;;;8248686;28;20463;-74
2021/01/06 15:15:35;;;;;;;68.33;32.50;;;5.20;87.80;;;;;;8248155;28;20453;-74
2021/01/06 15:19:41;;;;;;;84.73;35.37;;;5.20;88.00;;;;;;8239075;28;20486;-75
2021/01/06 15:23:53;;;;;;;89.47;36.63;;;5.20;88.10;;;;;;8243463;28;20475;-75
2021/01/06 15:28:26;;;;;;;91.10;36.60;;;5.20;88.10;;;;;;8268999;28;20894;-75
2021/01/06 15:32:40;;;;;;;78.27;35.77;;;5.10;88.10;;;;;;8231993;28;20462;-75
2021/01/06 15:36:50;;;;;;;85.57;37.57;;;5.10;88.20;;;;;;8265120;28;20542;-75
2021/01/06 15:41:00;;;;;;;79.53;34.57;;;5.10;88.30;;;;;;8226064;28;20461;-75
2021/01/06 15:45:13;;;;;;;68.63;35.00;;;5.10;88.30;;;;;;8252129;28;20478;-75
2021/01/06 15:49:34;;;;;;;78.23;34.43;;;5.10;88.30;;;;;;8252816;28;20445;-75
2021/01/06 15:53:43;;;;;;;64.47;33.47;;;5.10;87.90;;;;;;8243121;28;20446;-77
2021/01/06 15:57:49;;;;;;;78.17;35.70;;;5.10;87.90;;;;;;8241165;28;20498;-75
2021/01/06 16:01:59;;;;;;;78.67;31.93;;;5.00;87.70;;;;;;8263837;28;20453;-75
2021/01/06 16:06:05;;;;;;;68.83;33.50;;;5.00;88.00;;;;;;8258806;28;20529;-75
2021/01/06 16:10:19;;;;;;;85.57;36.90;;;5.00;88.10;;;;;;8261109;28;20466;-75
2021/01/06 16:14:31;;;;;;;84.37;38.47;;;5.00;88.00;;;;;;8260629;28;20455;-74
2021/01/06 16:18:46;;;;;;;82.27;38.07;;;5.00;87.90;;;;;;8259337;28;20461;-75
2021/01/06 16:22:49;;;;;;;82.87;39.80;;;4.90;87.90;;;;;;8257874;28;20475;-76
2021/01/06 16:27:12;;;;;;;98.87;40.93;;;4.80;88.00;;;;;;8258150;28;20481;-75
2021/01/06 16:31:28;;;;;;;87.67;42.30;;;4.80;88.10;;;;;;8240207;28;21350;-74
2021/01/06 16:35:34;;;;;;;94.40;37.20;;;4.80;88.20;;;;;;8247660;28;20523;-76
2021/01/06 16:39:40;;;;;;;81.70;37.83;;;4.80;88.30;;;;;;8264492;28;20447;-76
2021/01/06 16:43:46;;;;;;;88.13;38.30;;;4.70;88.80;;;;;;8255657;28;20497;-75
2021/01/06 16:48:00;;;;;;;105.90;42.77;;;4.70;88.20;;;;;;8251274;28;20470;-76
2021/01/06 16:52:19;;;;;;;87.53;38.03;;;4.70;88.20;;;;;;8253918;28;20450;-76
2021/01/06 16:56:42;;;;;;;99.80;38.17;;;4.80;88.20;;;;;;8265486;28;20448;-75
2021/01/06 17:00:59;;;;;;;75.37;36.70;;;4.70;88.10;;;;;;8244765;28;20461;-76
2021/01/06 17:05:04;;;;;;;94.83;43.40;;;4.70;87.90;;;;;;8253650;28;20819;-74
2021/01/06 17:09:17;;;;;;;92.57;43.90;;;4.70;87.90;;;;;;8246768;28;20458;-75
2021/01/06 17:13:25;;;;;;;92.83;42.10;;;4.70;87.80;;;;;;8251530;28;20457;-75
2021/01/06 17:17:32;;;;;;;88.37;41.07;;;4.70;87.80;;;;;;8235872;28;20459;-75
2021/01/06 17:21:53;;;;;;;96.13;40.30;;;4.70;87.80;;;;;;8250845;28;20907;-75
2021/01/06 17:26:06;;;;;;;81.57;37.40;;;4.70;87.80;;;;;;8257140;28;20533;-76
2021/01/06 17:30:21;;;;;;;80.60;34.80;;;4.70;87.80;;;;;;8250398;28;20565;-74
2021/01/06 17:34:22;;;;;;;81.50;32.30;;;4.70;87.70;;;;;;8240350;28;20497;-75
2021/01/06 17:38:24;;;;;;;79.67;37.37;;;4.70;87.70;;;;;;8249227;28;20989;-75
2021/01/06 17:42:25;;;;;;;77.60;34.03;;;4.70;87.60;;;;;;8238998;28;20453;-76
2021/01/06 17:46:29;;;;;;;72.80;34.27;;;4.70;87.50;;;;;;8251424;28;20517;-74
2021/01/06 17:50:34;;;;;;;64.30;30.47;;;4.70;87.40;;;;;;8247128;28;20461;-75
2021/01/06 17:54:45;;;;;;;67.80;31.77;;;4.70;87.50;;;;;;8246299;28;20454;-75
2021/01/06 17:58:49;;;;;;;71.90;29.93;;;4.70;87.50;;;;;;8253922;28;20454;-74
2021/01/06 18:02:50;;;;;;;77.97;34.27;;;4.60;87.30;;;;;;8243407;28;20951;-74
2021/01/06 18:07:03;;;;;;;76.10;31.70;;;4.70;87.50;;;;;;8250035;28;20817;-75
2021/01/06 18:11:07;;;;;;;74.53;31.33;;;4.60;87.50;;;;;;8255266;28;20462;-74
2021/01/06 18:15:19;;;;;;;66.13;30.50;;;4.60;87.20;;;;;;8253731;28;20577;-76
2021/01/06 18:19:22;;;;;;;68.70;27.37;;;4.60;87.00;;;;;;8256920;28;20317;-75
2021/01/06 18:23:36;;;;;;;61.63;28.47;;;4.60;87.10;;;;;;8270092;28;20565;-75
2021/01/06 18:27:40;;;;;;;67.63;31.13;;;4.60;87.00;;;;;;8240862;28;20478;-78
2021/01/06 18:31:49;;;;;;;65.97;30.33;;;4.60;87.10;;;;;;8256965;28;20515;-75
2021/01/06 18:36:19;;;;;;;74.90;30.30;;;4.50;87.10;;;;;;8256004;28;20449;-75
2021/01/06 18:40:32;;;;;;;64.67;28.53;;;4.50;87.10;;;;;;8257845;28;20461;-76
2021/01/06 18:44:36;;;;;;;52.63;25.60;;;4.50;87.00;;;;;;8257333;28;20461;-75
2021/01/06 18:48:36;;;;;;;53.20;24.50;;;4.50;87.00;;;;;;8254466;28;20601;-74
2021/01/06 18:52:39;;;;;;;59.50;25.83;;;4.50;87.00;;;;;;8255721;28;20452;-76
2021/01/06 18:56:41;;;;;;;55.90;27.20;;;4.50;86.90;;;;;;8237613;28;20209;-76
2021/01/06 19:00:43;;;;;;;55.00;25.10;;;4.50;86.80;;;;;;8264812;28;20452;-74
2021/01/06 19:05:00;;;;;;;51.83;25.37;;;4.50;86.60;;;;;;8261124;28;20473;-75
2021/01/06 19:09:03;;;;;;;55.20;24.43;;;4.40;86.60;;;;;;8261011;28;20498;-76
2021/01/06 19:13:05;;;;;;;49.27;22.57;;;4.40;86.60;;;;;;8254999;28;20458;-75
2021/01/06 19:17:12;;;;;;;48.27;24.33;;;4.40;86.60;;;;;;8262664;28;20453;-76
2021/01/06 19:21:20;;;;;;;44.63;21.33;;;4.40;86.50;;;;;;8257949;28;20468;-75
2021/01/06 19:25:22;;;;;;;55.23;23.80;;;4.30;86.60;;;;;;8242980;28;20562;-74
2021/01/06 19:29:24;;;;;;;49.07;22.60;;;4.20;86.80;;;;;;8261955;28;20444;-76
2021/01/06 19:33:39;;;;;;;57.77;23.70;;;4.20;87.00;;;;;;8245481;28;20454;-73
2021/01/06 19:37:39;;;;;;;46.80;24.57;;;4.10;87.10;;;;;;8276497;28;20471;-76
2021/01/06 19:41:47;;;;;;;52.97;25.87;;;4.10;87.30;;;;;;8277425;28;20443;-76
2021/01/06 19:45:51;;;;;;;48.23;25.60;;;4.10;87.70;;;;;;8259750;28;20564;-75
2021/01/06 19:49:57;;;;;;;50.20;25.83;;;4.10;88.30;;;;;;8260142;28;20537;-76
2021/01/06 19:54:28;;;;;;;51.20;25.20;;;4.10;87.90;;;;;;8273879;28;20447;-75
2021/01/06 19:58:42;;;;;;;51.07;24.97;;;4.10;87.90;;;;;;8260942;28;20451;-75
2021/01/06 20:02:43;;;;;;;60.80;28.90;;;4.10;87.90;;;;;;8258360;28;20518;-74
2021/01/06 20:06:47;;;;;;;56.03;25.17;;;4.10;87.80;;;;;;8252834;28;20983;-75
2021/01/06 20:10:48;;;;;;;56.00;28.90;;;4.10;87.70;;;;;;8253181;28;20457;-76
2021/01/06 20:14:50;;;;;;;63.17;27.67;;;4.10;87.70;;;;;;8258248;28;20511;-76
2021/01/06 20:18:51;;;;;;;58.50;24.80;;;4.10;87.80;;;;;;8258773;28;20191;-77
2021/01/06 20:22:52;;;;;;;61.23;29.80;;;4.10;87.80;;;;;;8260784;28;20524;-77
2021/01/06 20:26:55;;;;;;;53.43;25.53;;;4.10;87.80;;;;;;8260546;28;20492;-76
2021/01/06 20:31:07;;;;;;;53.23;25.40;;;4.10;87.90;;;;;;8259357;28;20798;-76
2021/01/06 20:35:15;;;;;;;55.27;26.40;;;4.10;87.80;;;;;;8255724;28;20443;-75
2021/01/06 20:39:18;;;;;;;52.00;23.70;;;4.10;87.70;;;;;;8261549;28;20543;-75
2021/01/06 20:43:22;;;;;;;58.03;24.53;;;4.10;87.80;;;;;;8260435;28;20485;-75
2021/01/06 20:47:26;;;;;;;61.67;28.03;;;4.10;87.80;;;;;;8258585;28;20473;-74
2021/01/06 20:51:34;;;;;;;44.93;21.47;;;4.10;87.60;;;;;;8257746;28;21987;-74
2021/01/06 20:55:37;;;;;;;44.73;23.47;;;4.10;87.50;;;;;;8257349;28;20450;-76
2021/01/06 20:59:41;;;;;;;52.00;25.70;;;4.10;87.40;;;;;;8256813;28;20514;-75
2021/01/06 21:03:42;;;;;;;58.73;27.47;;;4.10;87.30;;;;;;8252510;28;20530;-76
2021/01/06 21:07:48;;;;;;;53.00;25.53;;;4.10;87.20;;;;;;8252455;28;20504;-76
2021/01/06 21:11:52;;;;;;;45.93;23.50;;;4.10;87.10;;;;;;8239965;28;20491;-75
2021/01/06 21:15:54;;;;;;;49.33;24.47;;;4.10;87.00;;;;;;8257260;28;20541;-75
2021/01/06 21:19:59;;;;;;;54.93;24.83;;;4.10;87.00;;;;;;8247064;28;21443;-75
2021/01/06 21:24:05;;;;;;;44.10;23.17;;;4.10;86.90;;;;;;8275956;28;20483;-74
2021/01/06 21:28:08;;;;;;;44.93;24.20;;;4.00;86.80;;;;;;8239669;28;20486;-75
2021/01/06 21:32:11;;;;;;;61.93;26.07;;;4.10;86.80;;;;;;8257554;28;21122;-75
2021/01/06 21:36:12;;;;;;;50.50;22.80;;;4.00;86.70;;;;;;8254031;28;20450;-75